createdAt,value
2018-09-04T00:00:13.435Z,13.37
2018-09-04T00:02:16.959Z,14.83
2018-09-04T00:04:20.535Z,14.63
2018-09-04T00:06:24.096Z,15.47
2018-09-04T00:08:27.663Z,13.90
2018-09-04T00:10:31.359Z,13.13
2018-09-04T00:12:35.249Z,14.43
2018-09-04T00:14:38.823Z,14.37
2018-09-04T00:16:42.435Z,13.87
2018-09-04T00:18:46.023Z,15.07
2018-09-04T00:20:49.578Z,14.03
2018-09-04T00:22:54.220Z,13.77
2018-09-04T00:24:57.798Z,13.77
2018-09-04T00:27:01.614Z,14.23
2018-09-04T00:29:05.240Z,14.20
2018-09-04T00:31:08.873Z,13.37
2018-09-04T00:33:12.394Z,14.70
2018-09-04T00:35:15.942Z,14.87
2018-09-04T00:37:19.727Z,14.23
2018-09-04T00:39:23.317Z,13.17
2018-09-04T00:41:27.041Z,14.27
2018-09-04T00:43:30.700Z,13.73
2018-09-04T00:45:34.705Z,12.03
2018-09-04T00:47:38.241Z,13.57
2018-09-04T00:49:41.752Z,12.53
2018-09-04T00:51:45.327Z,13.13
2018-09-04T00:53:48.851Z,12.10
2018-09-04T00:55:52.424Z,14.40
2018-09-04T00:57:56.014Z,13.23
2018-09-04T00:59:59.587Z,13.47
2018-09-04T01:02:03.448Z,15.30
2018-09-04T01:04:07.169Z,14.63
2018-09-04T01:06:10.690Z,13.90
2018-09-04T01:08:14.283Z,13.47
2018-09-04T01:10:17.865Z,13.27
2018-09-04T01:12:21.415Z,12.47
2018-09-04T01:14:24.926Z,13.20
2018-09-04T01:16:28.487Z,13.20
2018-09-04T01:18:32.046Z,11.80
2018-09-04T01:20:35.580Z,12.40
2018-09-04T01:22:39.152Z,12.23
2018-09-04T01:24:42.659Z,13.07
2018-09-04T01:26:50.142Z,13.10
2018-09-04T01:28:53.786Z,12.60
2018-09-04T01:30:57.382Z,13.97
2018-09-04T01:33:00.917Z,12.90
2018-09-04T01:35:04.502Z,12.30
2018-09-04T01:37:08.491Z,12.93
2018-09-04T01:39:12.119Z,12.90
2018-09-04T01:41:15.642Z,13.17
2018-09-04T01:43:19.189Z,12.07
2018-09-04T01:45:22.857Z,12.30
2018-09-04T01:47:26.502Z,12.47
2018-09-04T01:49:30.172Z,12.77
2018-09-04T01:51:33.789Z,13.53
2018-09-04T01:53:37.419Z,13.10
2018-09-04T01:55:40.995Z,12.97
2018-09-04T01:57:44.518Z,12.70
2018-09-04T01:59:48.038Z,11.90
2018-09-04T02:01:51.620Z,12.60
2018-09-04T02:03:55.199Z,11.93
2018-09-04T02:05:58.742Z,12.43
2018-09-04T02:08:02.313Z,11.57
2018-09-04T02:10:06.314Z,11.90
2018-09-04T02:12:09.875Z,11.40
2018-09-04T02:14:13.502Z,11.57
2018-09-04T02:16:17.125Z,11.63
2018-09-04T02:18:23.200Z,11.07
2018-09-04T02:20:26.761Z,11.10
2018-09-04T02:22:30.704Z,11.53
2018-09-04T02:24:34.260Z,12.20
2018-09-04T02:26:37.783Z,11.37
2018-09-04T02:28:41.371Z,11.77
2018-09-04T02:30:44.890Z,11.73
2018-09-04T02:32:48.551Z,10.67
2018-09-04T02:34:52.097Z,12.13
2018-09-04T02:36:55.675Z,11.37
2018-09-04T02:38:59.211Z,11.83
2018-09-04T02:41:02.810Z,11.57
2018-09-04T02:43:06.632Z,10.80
2018-09-04T02:45:10.187Z,10.80
2018-09-04T02:47:13.701Z,11.03
2018-09-04T02:49:17.473Z,12.23
2018-09-04T02:51:21.043Z,11.57
2018-09-04T02:53:24.828Z,11.23
2018-09-04T02:55:28.443Z,11.27
2018-09-04T02:57:31.980Z,11.47
2018-09-04T02:59:35.555Z,11.00
2018-09-04T03:01:39.107Z,11.37
2018-09-04T03:03:42.760Z,11.00
2018-09-04T03:05:46.291Z,11.13
2018-09-04T03:07:49.827Z,10.23
2018-09-04T03:09:54.560Z,11.90
2018-09-04T03:11:58.207Z,10.33
2018-09-04T03:14:01.978Z,12.40
2018-09-04T03:16:05.593Z,11.13
2018-09-04T03:18:09.170Z,12.40
2018-09-04T03:20:12.889Z,11.50
2018-09-04T03:22:17.045Z,11.83
2018-09-04T03:24:20.712Z,12.67
2018-09-04T03:26:24.312Z,13.37
2018-09-04T03:28:27.828Z,12.80
2018-09-04T03:30:31.351Z,11.83
2018-09-04T03:32:34.893Z,10.20
2018-09-04T03:34:39.319Z,11.47
2018-09-04T03:36:42.883Z,10.77
2018-09-04T03:38:46.536Z,11.40
2018-09-04T03:40:50.058Z,11.93
2018-09-04T03:42:53.630Z,11.23
2018-09-04T03:44:57.198Z,11.63
2018-09-04T03:47:00.805Z,10.63
2018-09-04T03:49:04.310Z,11.00
2018-09-04T03:51:08.008Z,10.67
2018-09-04T03:53:11.568Z,10.60
2018-09-04T03:55:15.423Z,10.53
2018-09-04T03:57:19.058Z,10.77
2018-09-04T03:59:22.716Z,10.43
2018-09-04T04:01:26.526Z,10.23
2018-09-04T04:03:29.939Z,10.57
2018-09-04T04:05:33.504Z,10.87
2018-09-04T04:07:37.147Z,11.70
2018-09-04T04:09:40.713Z,12.37
2018-09-04T04:11:44.217Z,11.63
2018-09-04T04:13:50.916Z,11.47
2018-09-04T04:15:54.450Z,11.23
2018-09-04T04:17:57.947Z,11.70
2018-09-04T04:20:01.672Z,12.87
2018-09-04T04:22:05.467Z,12.53
2018-09-04T04:24:08.994Z,13.27
2018-09-04T04:26:12.491Z,12.90
2018-09-04T04:28:16.226Z,12.90
2018-09-04T04:30:19.796Z,13.13
2018-09-04T04:32:23.370Z,13.77
2018-09-04T04:34:26.979Z,13.50
2018-09-04T04:36:30.486Z,13.30
2018-09-04T04:38:33.982Z,13.50
2018-09-04T04:40:37.524Z,13.13
2018-09-04T04:42:41.091Z,13.20
2018-09-04T04:44:44.863Z,12.40
2018-09-04T04:46:48.471Z,12.57
2018-09-04T04:48:52.078Z,12.33
2018-09-04T04:50:55.823Z,13.87
2018-09-04T04:52:59.365Z,13.67
2018-09-04T04:55:03.027Z,14.43
2018-09-04T04:57:06.552Z,14.40
2018-09-04T04:59:10.034Z,14.37
2018-09-04T05:01:13.658Z,14.10
2018-09-04T05:03:17.295Z,15.60
2018-09-04T05:05:20.787Z,13.87
2018-09-04T05:07:24.542Z,15.03
2018-09-04T05:09:35.026Z,15.93
2018-09-04T05:11:38.741Z,19.40
2018-09-04T05:13:42.145Z,16.40
2018-09-04T05:15:45.797Z,15.10
2018-09-04T05:17:49.451Z,15.27
2018-09-04T05:19:53.059Z,14.43
2018-09-04T05:21:56.555Z,14.93
2018-09-04T05:24:00.169Z,15.47
2018-09-04T05:26:03.818Z,15.70
2018-09-04T05:28:07.328Z,17.07
2018-09-04T05:30:10.823Z,18.63
2018-09-04T05:32:31.089Z,16.87
2018-09-04T05:34:34.685Z,17.37
2018-09-04T05:36:38.434Z,18.87
2018-09-04T05:38:41.971Z,19.20
2018-09-04T05:40:48.322Z,18.17
2018-09-04T05:42:55.664Z,18.03
2018-09-04T05:44:59.222Z,17.87
2018-09-04T05:47:02.818Z,16.77
2018-09-04T05:49:06.558Z,17.70
2018-09-04T05:51:10.260Z,18.80
2018-09-04T05:53:13.983Z,20.53
2018-09-04T05:55:17.586Z,18.57
2018-09-04T05:57:21.143Z,18.70
2018-09-04T05:59:24.648Z,18.07
2018-09-04T06:01:28.228Z,18.10
2018-09-04T06:03:31.842Z,18.17
2018-09-04T06:05:35.376Z,18.27
2018-09-04T06:07:38.919Z,18.57
2018-09-04T06:09:43.244Z,17.30
2018-09-04T06:11:46.770Z,17.10
2018-09-04T06:13:50.527Z,17.37
2018-09-04T06:15:54.088Z,17.80
2018-09-04T06:17:57.576Z,17.63
2018-09-04T06:20:01.087Z,16.97
2018-09-04T06:22:04.797Z,16.10
2018-09-04T06:24:08.359Z,17.77
2018-09-04T06:26:11.948Z,17.90
2018-09-04T06:28:15.470Z,17.03
2018-09-04T06:30:19.818Z,17.80
2018-09-04T06:32:23.599Z,17.30
2018-09-04T06:34:27.373Z,18.17
2018-09-04T06:36:30.941Z,17.60
2018-09-04T06:38:34.423Z,17.60
2018-09-04T06:40:38.048Z,18.57
2018-09-04T06:42:41.661Z,18.27
2018-09-04T06:44:45.191Z,17.37
2018-09-04T06:46:48.739Z,18.00
2018-09-04T06:48:52.230Z,18.17
2018-09-04T06:50:55.780Z,18.23
2018-09-04T06:52:59.278Z,19.07
2018-09-04T06:55:02.783Z,18.73
2018-09-04T06:57:06.342Z,19.03
2018-09-04T06:59:10.239Z,17.87
2018-09-04T07:01:13.872Z,20.33
2018-09-04T07:03:17.400Z,18.77
2018-09-04T07:05:20.895Z,19.27
2018-09-04T07:07:24.632Z,18.80
2018-09-04T07:09:28.179Z,19.33
2018-09-04T07:11:31.772Z,21.17
2018-09-04T07:13:35.327Z,21.03
2018-09-04T07:15:38.895Z,20.27
2018-09-04T07:17:42.405Z,20.23
2018-09-04T07:19:45.937Z,20.57
2018-09-04T07:21:49.752Z,22.13
2018-09-04T07:23:53.246Z,22.97
2018-09-04T07:25:56.724Z,22.07
2018-09-04T07:28:00.252Z,21.43
2018-09-04T07:30:03.769Z,22.87
2018-09-04T07:32:07.455Z,22.30
2018-09-04T07:34:10.951Z,21.83
2018-09-04T07:36:14.577Z,24.03
2018-09-04T07:38:18.165Z,21.73
2018-09-04T07:40:21.736Z,22.47
2018-09-04T07:42:25.470Z,22.00
2018-09-04T07:44:28.970Z,23.17
2018-09-04T07:46:32.506Z,25.13
2018-09-04T07:48:36.076Z,23.87
2018-09-04T07:50:39.559Z,24.90
2018-09-04T07:52:43.128Z,24.30
2018-09-04T07:54:46.620Z,25.53
2018-09-04T07:56:50.175Z,27.60
2018-09-04T07:58:53.747Z,25.47
2018-09-04T08:00:57.270Z,26.83
2018-09-04T08:03:00.860Z,25.73
2018-09-04T08:05:05.080Z,28.80
2018-09-04T08:07:08.564Z,27.77
2018-09-04T08:09:12.179Z,27.63
2018-09-04T08:11:15.728Z,27.73
2018-09-04T08:13:19.252Z,31.13
2018-09-04T08:15:22.820Z,28.83
2018-09-04T08:17:26.403Z,28.70
2018-09-04T08:19:29.887Z,28.50
2018-09-04T08:21:35.986Z,30.10
2018-09-04T08:23:39.499Z,29.73
2018-09-04T08:25:43.091Z,31.23
2018-09-04T08:27:46.688Z,27.80
2018-09-04T08:29:50.188Z,26.87
2018-09-04T08:31:53.822Z,28.63
2018-09-04T08:33:57.507Z,29.40
2018-09-04T08:36:01.147Z,28.83
2018-09-04T08:38:04.681Z,27.40
2018-09-04T08:40:08.352Z,26.87
2018-09-04T08:42:11.815Z,26.63
2018-09-04T08:44:15.342Z,27.47
2018-09-04T08:46:18.923Z,27.47
2018-09-04T08:48:22.584Z,28.10
2018-09-04T08:50:26.294Z,25.97
2018-09-04T08:52:29.744Z,27.07
2018-09-04T08:54:33.327Z,28.03
2018-09-04T08:56:36.921Z,25.17
2018-09-04T08:58:40.501Z,26.60
2018-09-04T09:00:43.953Z,26.93
2018-09-04T09:02:47.443Z,26.60
2018-09-04T09:04:50.987Z,27.80
2018-09-04T09:06:54.648Z,27.60
2018-09-04T09:08:58.193Z,26.57
2018-09-04T09:11:01.705Z,26.20
2018-09-04T09:13:05.409Z,27.20
2018-09-04T09:15:08.969Z,27.83
2018-09-04T09:17:12.459Z,27.77
2018-09-04T09:19:15.964Z,23.33
2018-09-04T09:21:19.478Z,28.17
2018-09-04T09:23:23.167Z,25.73
2018-09-04T09:25:26.686Z,26.10
2018-09-04T09:27:30.219Z,25.70
2018-09-04T09:29:33.794Z,24.40
2018-09-04T09:31:37.533Z,26.57
2018-09-04T09:33:41.178Z,27.27
2018-09-04T09:35:44.690Z,29.20
2018-09-04T09:37:48.282Z,26.70
2018-09-04T09:39:51.815Z,25.63
2018-09-04T09:41:55.366Z,24.93
2018-09-04T09:43:58.893Z,24.87
2018-09-04T09:46:02.420Z,27.87
2018-09-04T09:48:06.184Z,26.97
2018-09-04T09:50:09.796Z,27.17
2018-09-04T09:52:13.539Z,26.37
2018-09-04T09:54:17.068Z,25.07
2018-09-04T09:56:27.327Z,23.70
2018-09-04T09:58:30.868Z,23.43
2018-09-04T10:00:38.626Z,23.23
2018-09-04T10:02:47.686Z,22.47
2018-09-04T10:04:51.316Z,23.20
2018-09-04T10:06:54.843Z,21.37
2018-09-04T10:08:58.384Z,23.10
2018-09-04T10:11:02.231Z,21.73
2018-09-04T10:13:05.918Z,22.47
2018-09-04T10:15:09.444Z,21.93
2018-09-04T10:17:13.000Z,22.70
2018-09-04T10:19:16.685Z,20.93
2018-09-04T10:21:20.286Z,19.90
2018-09-04T10:23:23.772Z,20.00
2018-09-04T10:25:27.429Z,18.73
2018-09-04T10:27:30.921Z,19.73
2018-09-04T10:29:34.454Z,19.10
2018-09-04T10:31:37.956Z,18.93
2018-09-04T10:33:41.703Z,18.43
2018-09-04T10:35:45.387Z,18.10
2018-09-04T10:37:49.260Z,18.57
2018-09-04T10:39:58.188Z,18.60
2018-09-04T10:42:01.727Z,22.10
2018-09-04T10:44:05.327Z,17.40
2018-09-04T10:46:10.480Z,16.30
2018-09-04T10:48:15.119Z,15.40
2018-09-04T10:50:18.709Z,15.60
2018-09-04T10:52:22.279Z,16.70
2018-09-04T10:54:25.932Z,15.77
2018-09-04T10:56:29.535Z,16.03
2018-09-04T10:58:33.035Z,14.13
2018-09-04T11:00:36.579Z,13.83
2018-09-04T11:02:40.133Z,13.40
2018-09-04T11:04:43.735Z,13.60
2018-09-04T11:06:47.300Z,11.53
2018-09-04T11:08:50.962Z,10.83
2018-09-04T11:10:54.462Z,13.80
2018-09-04T11:12:58.216Z,12.67
2018-09-04T11:15:01.753Z,13.07
2018-09-04T11:17:05.261Z,13.13
2018-09-04T11:19:08.798Z,12.50
2018-09-04T11:21:12.300Z,12.40
2018-09-04T11:23:15.823Z,13.17
2018-09-04T11:25:19.392Z,13.53
2018-09-04T11:27:22.909Z,13.10
2018-09-04T11:29:26.459Z,13.73
2018-09-04T11:31:29.996Z,12.67
2018-09-04T11:33:33.631Z,13.90
2018-09-04T11:35:37.298Z,12.77
2018-09-04T11:37:41.015Z,12.50
2018-09-04T11:39:44.545Z,11.93
2018-09-04T11:41:48.096Z,11.50
2018-09-04T11:43:51.591Z,12.20
2018-09-04T11:45:55.142Z,10.63
2018-09-04T11:48:00.423Z,10.63
2018-09-04T11:50:04.171Z,11.47
2018-09-04T11:52:07.823Z,11.43
2018-09-04T11:54:11.405Z,12.67
2018-09-04T11:56:19.462Z,11.60
2018-09-04T11:58:22.974Z,10.93
2018-09-04T12:00:36.062Z,10.90
2018-09-04T12:02:40.926Z,10.83
2018-09-04T12:04:44.452Z,10.70
2018-09-04T12:06:48.023Z,10.83
2018-09-04T12:08:51.569Z,10.77
2018-09-04T12:10:55.040Z,10.20
2018-09-04T12:12:58.651Z,10.93
2018-09-04T12:15:02.156Z,10.07
2018-09-04T12:17:07.676Z,10.77
2018-09-04T12:19:11.343Z,11.83
2018-09-04T12:21:14.869Z,13.00
2018-09-04T12:23:18.278Z,10.53
2018-09-04T12:25:21.886Z,11.90
2018-09-04T12:27:25.533Z,11.73
2018-09-04T12:29:29.101Z,13.03
2018-09-04T12:31:32.668Z,12.07
2018-09-04T12:33:36.183Z,13.47
2018-09-04T12:35:39.703Z,12.43
2018-09-04T12:37:43.220Z,14.60
2018-09-04T12:39:51.856Z,15.47
2018-09-04T12:41:55.521Z,13.87
2018-09-04T12:43:59.052Z,15.93
2018-09-04T12:46:02.627Z,14.10
2018-09-04T12:48:06.321Z,13.50
2018-09-04T12:50:09.859Z,14.07
2018-09-04T12:52:13.381Z,15.23
2018-09-04T12:54:16.904Z,13.40
2018-09-04T12:56:20.470Z,13.37
2018-09-04T12:58:24.056Z,13.87
2018-09-04T13:00:27.637Z,14.33
2018-09-04T13:02:31.259Z,14.13
2018-09-04T13:04:34.878Z,14.70
2018-09-04T13:06:38.399Z,14.40
2018-09-04T13:08:41.950Z,13.57
2018-09-04T13:10:45.516Z,14.37
2018-09-04T13:12:49.048Z,14.93
2018-09-04T13:14:52.671Z,14.10
2018-09-04T13:16:59.055Z,15.73
2018-09-04T13:19:02.598Z,15.70
2018-09-04T13:21:06.159Z,16.00
2018-09-04T13:23:09.692Z,15.47
2018-09-04T13:25:13.311Z,15.30
2018-09-04T13:27:16.871Z,14.23
2018-09-04T13:29:20.455Z,15.10
2018-09-04T13:31:24.012Z,14.20
2018-09-04T13:33:27.555Z,14.90
2018-09-04T13:35:31.072Z,14.50
2018-09-04T13:37:34.602Z,15.43
2018-09-04T13:39:38.116Z,15.00
2018-09-04T13:41:41.652Z,14.47
2018-09-04T13:43:45.184Z,15.43
2018-09-04T13:45:48.686Z,15.30
2018-09-04T13:47:52.211Z,14.97
2018-09-04T13:49:56.423Z,16.60
2018-09-04T13:52:00.071Z,14.73
2018-09-04T13:54:03.605Z,17.10
2018-09-04T13:56:07.271Z,15.40
2018-09-04T13:58:10.864Z,16.40
2018-09-04T14:00:15.572Z,16.63
2018-09-04T14:02:19.236Z,16.77
2018-09-04T14:04:22.795Z,17.47
2018-09-04T14:06:26.234Z,16.37
2018-09-04T14:08:29.784Z,17.70
2018-09-04T14:10:33.352Z,15.93
2018-09-04T14:12:36.879Z,15.50
2018-09-04T14:14:40.422Z,16.50
2018-09-04T14:16:44.027Z,15.60
2018-09-04T14:18:47.662Z,17.00
2018-09-04T14:20:51.245Z,15.97
2018-09-04T14:22:54.726Z,16.60
2018-09-04T14:24:58.235Z,16.37
2018-09-04T14:27:01.736Z,17.30
2018-09-04T14:29:07.051Z,17.20
2018-09-04T14:31:09.067Z,16.63
2018-09-04T14:33:12.608Z,17.30
2018-09-04T14:35:16.149Z,18.37
2018-09-04T14:37:19.745Z,18.27
2018-09-04T14:39:23.134Z,17.37
2018-09-04T14:41:26.692Z,17.70
2018-09-04T14:43:32.351Z,17.53
2018-09-04T14:45:35.853Z,16.90
2018-09-04T14:47:43.958Z,18.23
2018-09-04T14:49:47.491Z,16.87
2018-09-04T14:51:51.029Z,17.63
2018-09-04T14:53:54.713Z,18.60
2018-09-04T14:55:58.208Z,16.57
2018-09-04T14:58:01.687Z,17.20
2018-09-04T15:00:05.822Z,17.73
2018-09-04T15:02:09.323Z,18.83
2018-09-04T15:04:12.955Z,18.23
2018-09-04T15:06:16.531Z,17.03
2018-09-04T15:08:20.059Z,18.23
2018-09-04T15:10:23.587Z,18.23
2018-09-04T15:12:27.311Z,17.50
2018-09-04T15:14:30.832Z,18.00
2018-09-04T15:16:34.524Z,16.17
2018-09-04T15:18:38.111Z,16.03
2018-09-04T15:20:42.308Z,17.47
2018-09-04T15:22:45.803Z,17.13
2018-09-04T15:24:49.626Z,18.63
2018-09-04T15:26:53.248Z,18.77
2018-09-04T15:28:56.758Z,17.57
2018-09-04T15:31:05.290Z,17.00
2018-09-04T15:33:08.795Z,18.50
2018-09-04T15:35:12.298Z,16.83
2018-09-04T15:37:15.931Z,16.83
2018-09-04T15:39:19.474Z,16.93
2018-09-04T15:41:23.003Z,17.03
2018-09-04T15:43:26.517Z,17.37
2018-09-04T15:45:30.054Z,18.03
2018-09-04T15:47:33.640Z,20.20
2018-09-04T15:49:42.612Z,17.70
2018-09-04T15:51:46.167Z,18.50
2018-09-04T15:53:49.691Z,18.80
2018-09-04T15:55:53.185Z,18.70
2018-09-04T15:57:56.689Z,19.37
2018-09-04T16:00:00.250Z,18.93
2018-09-04T16:02:03.918Z,18.47
2018-09-04T16:04:07.439Z,17.47
2018-09-04T16:06:10.959Z,18.37
2018-09-04T16:08:14.499Z,17.17
2018-09-04T16:10:18.066Z,18.83
2018-09-04T16:12:21.548Z,19.13
2018-09-04T16:14:25.094Z,18.70
2018-09-04T16:16:28.623Z,18.10
2018-09-04T16:18:32.139Z,18.27
2018-09-04T16:20:35.654Z,18.23
2018-09-04T16:22:39.340Z,19.57
2018-09-04T16:24:42.961Z,19.90
2018-09-04T16:26:46.468Z,18.80
2018-09-04T16:28:49.963Z,18.93
2018-09-04T16:30:53.638Z,21.33
2018-09-04T16:32:57.155Z,19.73
2018-09-04T16:35:00.780Z,19.67
2018-09-04T16:37:04.322Z,19.83
2018-09-04T16:39:07.848Z,20.87
2018-09-04T16:41:11.377Z,20.33
2018-09-04T16:43:15.006Z,21.10
2018-09-04T16:45:18.542Z,20.03
2018-09-04T16:47:22.620Z,20.40
2018-09-04T16:49:27.301Z,19.10
2018-09-04T16:51:30.888Z,19.33
2018-09-04T16:53:34.447Z,19.87
2018-09-04T16:55:38.007Z,21.60
2018-09-04T16:57:41.504Z,22.03
2018-09-04T16:59:45.069Z,21.20
2018-09-04T17:01:48.684Z,20.97
2018-09-04T17:03:52.208Z,19.60
2018-09-04T17:05:56.376Z,20.30
2018-09-04T17:07:59.996Z,20.73
2018-09-04T17:10:03.635Z,21.27
2018-09-04T17:12:07.256Z,19.97
2018-09-04T17:14:10.981Z,18.50
2018-09-04T17:16:14.736Z,18.67
2018-09-04T17:18:18.269Z,18.63
2018-09-04T17:20:22.044Z,18.90
2018-09-04T17:22:25.553Z,18.10
2018-09-04T17:24:29.067Z,19.47
2018-09-04T17:26:32.572Z,18.67
2018-09-04T17:28:36.136Z,18.93
2018-09-04T17:30:39.660Z,19.17
2018-09-04T17:32:43.214Z,18.97
2018-09-04T17:34:46.739Z,21.20
2018-09-04T17:36:50.296Z,22.47
2018-09-04T17:38:53.804Z,20.80
2018-09-04T17:40:57.520Z,27.03
2018-09-04T17:43:01.226Z,19.77
2018-09-04T17:45:04.937Z,19.17
2018-09-04T17:47:08.556Z,20.17
2018-09-04T17:49:12.108Z,19.83
2018-09-04T17:51:15.676Z,19.93
2018-09-04T17:53:19.195Z,21.13
2018-09-04T17:55:22.723Z,19.90
2018-09-04T17:57:26.297Z,20.20
2018-09-04T17:59:29.862Z,19.93
2018-09-04T18:01:33.606Z,18.73
2018-09-04T18:03:37.171Z,19.73
2018-09-04T18:05:40.978Z,20.57
2018-09-04T18:07:44.651Z,20.63
2018-09-04T18:09:48.264Z,20.33
2018-09-04T18:11:52.081Z,20.50
2018-09-04T18:13:55.682Z,20.13
2018-09-04T18:15:59.274Z,21.33
2018-09-04T18:18:03.155Z,20.30
2018-09-04T18:20:07.108Z,21.00
2018-09-04T18:22:10.763Z,22.40
2018-09-04T18:24:14.425Z,20.77
2018-09-04T18:26:18.014Z,21.43
2018-09-04T18:28:21.590Z,23.07
2018-09-04T18:30:25.248Z,22.10
2018-09-04T18:32:28.973Z,22.20
2018-09-04T18:34:32.604Z,21.40
2018-09-04T18:36:36.184Z,20.63
2018-09-04T18:38:39.854Z,22.00
2018-09-04T18:40:43.443Z,20.73
2018-09-04T18:42:47.140Z,21.87
2018-09-04T18:44:50.946Z,22.57
2018-09-04T18:46:54.818Z,20.70
2018-09-04T18:48:58.496Z,20.17
2018-09-04T18:51:01.995Z,20.47
2018-09-04T18:53:08.392Z,21.07
2018-09-04T18:55:11.998Z,19.80
2018-09-04T18:57:15.591Z,19.67
2018-09-04T18:59:19.173Z,20.43
2018-09-04T19:01:22.787Z,21.37
2018-09-04T19:03:26.634Z,19.50
2018-09-04T19:05:30.403Z,20.10
2018-09-04T19:07:34.074Z,21.77
2018-09-04T19:09:37.656Z,20.47
2018-09-04T19:11:41.270Z,22.50
2018-09-04T19:13:44.847Z,22.13
2018-09-04T19:15:48.408Z,22.67
2018-09-04T19:17:51.962Z,20.80
2018-09-04T19:19:55.695Z,21.13
2018-09-04T19:22:01.292Z,21.43
2018-09-04T19:24:04.942Z,21.50
2018-09-04T19:26:31.324Z,21.37
2018-09-04T19:28:35.059Z,21.87
2018-09-04T19:30:38.617Z,21.60
2018-09-04T19:32:42.419Z,21.33
2018-09-04T19:34:46.095Z,21.33
2018-09-04T19:36:49.676Z,22.20
2018-09-04T19:38:53.383Z,20.40
2018-09-04T19:40:56.930Z,19.50
2018-09-04T19:43:00.570Z,18.70
2018-09-04T19:45:04.998Z,18.53
2018-09-04T19:47:08.656Z,19.67
2018-09-04T19:49:12.458Z,18.87
2018-09-04T19:51:16.127Z,20.40
2018-09-04T19:53:20.028Z,18.77
2018-09-04T19:55:24.136Z,20.13
2018-09-04T19:57:27.694Z,20.17
2018-09-04T19:59:32.534Z,19.20
2018-09-04T20:01:36.274Z,20.00
2018-09-04T20:03:40.019Z,20.10
2018-09-04T20:05:43.681Z,19.33
2018-09-04T20:07:47.248Z,19.87
2018-09-04T20:09:51.633Z,19.57
2018-09-04T20:11:55.262Z,21.47
2018-09-04T20:13:58.791Z,20.50
2018-09-04T20:16:02.327Z,20.80
2018-09-04T20:18:06.256Z,21.43
2018-09-04T20:20:09.796Z,21.10
2018-09-04T20:22:13.348Z,20.47
2018-09-04T20:24:17.074Z,20.00
2018-09-04T20:26:20.606Z,20.47
2018-09-04T20:28:24.365Z,20.57
2018-09-04T20:30:27.890Z,22.60
2018-09-04T20:32:32.592Z,22.70
2018-09-04T20:34:36.084Z,20.83
2018-09-04T20:36:39.674Z,20.63
2018-09-04T20:38:43.371Z,22.13
2018-09-04T20:40:46.985Z,20.27
2018-09-04T20:42:50.553Z,21.50
2018-09-04T20:44:54.206Z,20.13
2018-09-04T20:46:57.929Z,20.50
2018-09-04T20:49:01.469Z,20.87
2018-09-04T20:51:05.324Z,20.10
2018-09-04T20:53:08.923Z,21.17
2018-09-04T20:55:12.511Z,20.97
2018-09-04T20:57:22.321Z,21.87
2018-09-04T20:59:37.328Z,22.37
2018-09-04T21:01:52.151Z,21.70
2018-09-04T21:04:07.045Z,23.13
2018-09-04T21:06:21.648Z,21.33
2018-09-04T21:08:43.835Z,19.27
2018-09-04T21:10:48.428Z,19.03
2018-09-04T21:12:52.040Z,19.80
2018-09-04T21:14:55.700Z,20.50
2018-09-04T21:16:59.439Z,20.23
2018-09-04T21:19:03.116Z,19.57
2018-09-04T21:21:06.737Z,19.57
2018-09-04T21:23:10.323Z,20.33
2018-09-04T21:25:13.954Z,19.53
2018-09-04T21:27:18.661Z,19.60
2018-09-04T21:29:22.174Z,19.20
2018-09-04T21:31:25.982Z,19.67
2018-09-04T21:33:29.552Z,18.37
2018-09-04T21:35:33.125Z,19.43
2018-09-04T21:37:36.753Z,19.20
2018-09-04T21:39:40.334Z,19.63
2018-09-04T21:41:43.961Z,18.73
2018-09-04T21:43:47.471Z,18.27
2018-09-04T21:45:50.997Z,19.97
2018-09-04T21:47:54.547Z,19.33
2018-09-04T21:49:58.089Z,17.23
2018-09-04T21:52:01.658Z,19.13
2018-09-04T21:54:05.231Z,18.60
2018-09-04T21:56:08.742Z,19.50
2018-09-04T21:58:18.959Z,18.83
2018-09-04T22:00:28.126Z,19.40
2018-09-04T22:02:31.765Z,18.67
2018-09-04T22:04:35.434Z,19.97
2018-09-04T22:06:39.052Z,19.57
2018-09-04T22:08:42.870Z,18.67
2018-09-04T22:10:46.487Z,17.83
2018-09-04T22:12:50.091Z,18.77
2018-09-04T22:14:53.819Z,19.43
2018-09-04T22:16:57.398Z,19.80
2018-09-04T22:19:00.954Z,20.33
2018-09-04T22:21:04.755Z,18.97
2018-09-04T22:23:08.353Z,20.20
2018-09-04T22:25:12.999Z,20.20
2018-09-04T22:27:16.553Z,20.33
2018-09-04T22:29:20.069Z,20.80
2018-09-04T22:31:23.881Z,20.90
2018-09-04T22:33:27.463Z,20.13
2018-09-04T22:35:31.022Z,19.90
2018-09-04T22:37:35.411Z,19.30
2018-09-04T22:39:39.074Z,19.87
2018-09-04T22:41:42.749Z,18.93
2018-09-04T22:43:46.256Z,19.43
2018-09-04T22:45:49.972Z,18.80
2018-09-04T22:47:53.612Z,20.27
2018-09-04T22:50:02.541Z,19.80
2018-09-04T22:52:06.185Z,19.13
2018-09-04T22:54:10.792Z,20.83
2018-09-04T22:56:14.369Z,19.67
2018-09-04T22:58:17.916Z,19.60
2018-09-04T23:00:21.481Z,18.23
2018-09-04T23:02:25.003Z,19.17
2018-09-04T23:04:28.529Z,21.00
2018-09-04T23:06:32.132Z,20.50
2018-09-04T23:08:35.697Z,20.13
2018-09-04T23:10:39.406Z,19.60
2018-09-04T23:12:42.991Z,19.27
2018-09-04T23:14:46.891Z,19.47
2018-09-04T23:16:50.603Z,19.80
2018-09-04T23:18:54.121Z,19.13
2018-09-04T23:20:57.772Z,20.20
2018-09-04T23:23:01.329Z,19.53
2018-09-04T23:25:04.875Z,18.43
2018-09-04T23:27:08.611Z,17.60
2018-09-04T23:29:12.107Z,17.17
2018-09-04T23:31:15.630Z,17.57
2018-09-04T23:33:19.248Z,19.93
2018-09-04T23:35:22.751Z,23.80
2018-09-04T23:37:26.295Z,23.53
2018-09-04T23:39:29.958Z,24.03
2018-09-04T23:41:33.669Z,23.27
2018-09-04T23:43:37.252Z,22.37
2018-09-04T23:45:40.880Z,20.37
2018-09-04T23:47:44.677Z,21.10
2018-09-04T23:49:48.188Z,20.57
2018-09-04T23:51:51.791Z,19.47
2018-09-04T23:53:55.298Z,21.43
2018-09-04T23:55:58.897Z,21.43
2018-09-04T23:58:02.515Z,19.40
